sensor_id;sensor_type;location;lat;lon;timestamp;P1;durP1;ratioP1;P2;durP2;ratioP2
52294;SDS011;38243;53.212;6.574;2022-12-01T00:01:19;16.45;;;11.98;;
52294;SDS011;38243;53.212;6.574;2022-12-01T00:03:45;18.55;;;13.18;;
52294;SDS011;38243;53.212;6.574;2022-12-01T00:08:39;17.20;;;12.65;;
52294;SDS011;38243;53.212;6.574;2022-12-01T00:11:06;19.10;;;12.37;;
52294;SDS011;38243;53.212;6.574;2022-12-01T00:13:34;18.42;;;12.75;;
52294;SDS011;38243;53.212;6.574;2022-12-01T00:16:12;16.10;;;12.32;;
52294;SDS011;38243;53.212;6.574;2022-12-01T00:18:39;20.65;;;12.98;;
52294;SDS011;38243;53.212;6.574;2022-12-01T00:21:05;18.13;;;12.67;;
52294;SDS011;38243;53.212;6.574;2022-12-01T00:23:31;22.50;;;13.13;;
52294;SDS011;38243;53.212;6.574;2022-12-01T00:26:03;16.33;;;11.27;;
52294;SDS011;38243;53.212;6.574;2022-12-01T00:28:29;16.15;;;11.32;;
52294;SDS011;38243;53.212;6.574;2022-12-01T00:30:55;18.77;;;12.82;;
52294;SDS011;38243;53.212;6.574;2022-12-01T00:33:20;18.00;;;12.80;;
52294;SDS011;38243;53.212;6.574;2022-12-01T00:35:46;18.05;;;13.02;;
52294;SDS011;38243;53.212;6.574;2022-12-01T00:38:12;17.60;;;12.70;;
52294;SDS011;38243;53.212;6.574;2022-12-01T00:40:38;17.85;;;12.75;;
52294;SDS011;38243;53.212;6.574;2022-12-01T00:43:04;19.43;;;12.63;;
52294;SDS011;38243;53.212;6.574;2022-12-01T00:45:29;18.80;;;13.23;;
52294;SDS011;38243;53.212;6.574;2022-12-01T00:47:55;17.23;;;12.57;;
52294;SDS011;38243;53.212;6.574;2022-12-01T00:50:20;18.98;;;13.43;;
52294;SDS011;38243;53.212;6.574;2022-12-01T00:52:46;18.87;;;13.33;;
52294;SDS011;38243;53.212;6.574;2022-12-01T00:55:12;20.83;;;13.43;;
52294;SDS011;38243;53.212;6.574;2022-12-01T00:57:38;17.97;;;12.83;;
52294;SDS011;38243;53.212;6.574;2022-12-01T01:00:03;18.92;;;12.80;;
52294;SDS011;38243;53.212;6.574;2022-12-01T01:02:30;19.98;;;12.75;;
52294;SDS011;38243;53.212;6.574;2022-12-01T01:04:56;22.42;;;13.77;;
52294;SDS011;38243;53.212;6.574;2022-12-01T01:07:21;19.50;;;13.85;;
52294;SDS011;38243;53.212;6.574;2022-12-01T01:09:47;18.07;;;12.63;;
52294;SDS011;38243;53.212;6.574;2022-12-01T01:12:13;19.73;;;13.25;;
52294;SDS011;38243;53.212;6.574;2022-12-01T01:14:38;18.67;;;12.90;;
52294;SDS011;38243;53.212;6.574;2022-12-01T01:17:04;18.02;;;12.30;;
52294;SDS011;38243;53.212;6.574;2022-12-01T01:19:30;18.27;;;13.03;;
52294;SDS011;38243;53.212;6.574;2022-12-01T01:21:55;20.45;;;14.65;;
52294;SDS011;38243;53.212;6.574;2022-12-01T01:24:21;22.33;;;14.40;;
52294;SDS011;38243;53.212;6.574;2022-12-01T01:26:47;20.33;;;13.17;;
52294;SDS011;38243;53.212;6.574;2022-12-01T01:29:12;20.52;;;13.65;;
52294;SDS011;38243;53.212;6.574;2022-12-01T01:31:38;20.33;;;13.73;;
52294;SDS011;38243;53.212;6.574;2022-12-01T01:34:04;20.10;;;14.23;;
52294;SDS011;38243;53.212;6.574;2022-12-01T01:36:30;20.97;;;14.30;;
52294;SDS011;38243;53.212;6.574;2022-12-01T01:38:57;20.10;;;13.10;;
52294;SDS011;38243;53.212;6.574;2022-12-01T01:41:22;23.60;;;13.63;;
52294;SDS011;38243;53.212;6.574;2022-12-01T01:43:53;21.65;;;13.35;;
52294;SDS011;38243;53.212;6.574;2022-12-01T01:46:24;21.85;;;14.05;;
52294;SDS011;38243;53.212;6.574;2022-12-01T01:49:04;22.23;;;14.77;;
52294;SDS011;38243;53.212;6.574;2022-12-01T01:51:37;19.48;;;14.20;;
52294;SDS011;38243;53.212;6.574;2022-12-01T01:54:13;22.07;;;13.90;;
52294;SDS011;38243;53.212;6.574;2022-12-01T01:56:46;19.83;;;13.88;;
52294;SDS011;38243;53.212;6.574;2022-12-01T01:59:15;20.30;;;13.50;;
52294;SDS011;38243;53.212;6.574;2022-12-01T02:01:49;21.48;;;13.65;;
52294;SDS011;38243;53.212;6.574;2022-12-01T02:04:22;20.08;;;14.93;;
52294;SDS011;38243;53.212;6.574;2022-12-01T02:06:54;21.25;;;13.68;;
52294;SDS011;38243;53.212;6.574;2022-12-01T02:09:20;20.83;;;13.43;;
52294;SDS011;38243;53.212;6.574;2022-12-01T02:14:52;23.80;;;14.67;;
52294;SDS011;38243;53.212;6.574;2022-12-01T02:17:34;20.42;;;13.70;;
52294;SDS011;38243;53.212;6.574;2022-12-01T02:34:01;20.75;;;14.23;;
52294;SDS011;38243;53.212;6.574;2022-12-01T02:36:42;22.40;;;14.25;;
52294;SDS011;38243;53.212;6.574;2022-12-01T02:42:16;22.42;;;15.10;;
52294;SDS011;38243;53.212;6.574;2022-12-01T02:45:04;21.80;;;15.10;;
52294;SDS011;38243;53.212;6.574;2022-12-01T02:47:36;21.80;;;14.38;;
52294;SDS011;38243;53.212;6.574;2022-12-01T02:50:04;21.83;;;14.43;;
52294;SDS011;38243;53.212;6.574;2022-12-01T02:52:32;21.60;;;14.13;;
52294;SDS011;38243;53.212;6.574;2022-12-01T02:54:58;22.38;;;16.48;;
52294;SDS011;38243;53.212;6.574;2022-12-01T02:57:24;21.58;;;15.00;;
52294;SDS011;38243;53.212;6.574;2022-12-01T02:59:51;22.77;;;14.90;;
52294;SDS011;38243;53.212;6.574;2022-12-01T03:05:03;21.33;;;14.82;;
52294;SDS011;38243;53.212;6.574;2022-12-01T03:18:28;21.07;;;15.33;;
52294;SDS011;38243;53.212;6.574;2022-12-01T03:23:54;22.70;;;14.85;;
52294;SDS011;38243;53.212;6.574;2022-12-01T03:26:25;22.55;;;15.32;;
52294;SDS011;38243;53.212;6.574;2022-12-01T03:28:59;21.05;;;14.38;;
52294;SDS011;38243;53.212;6.574;2022-12-01T03:31:31;20.50;;;15.23;;
52294;SDS011;38243;53.212;6.574;2022-12-01T03:34:02;19.67;;;14.43;;
52294;SDS011;38243;53.212;6.574;2022-12-01T03:36:34;20.95;;;14.88;;
52294;SDS011;38243;53.212;6.574;2022-12-01T03:39:22;19.43;;;13.83;;
52294;SDS011;38243;53.212;6.574;2022-12-01T03:41:58;20.73;;;14.63;;
52294;SDS011;38243;53.212;6.574;2022-12-01T03:44:35;21.13;;;15.15;;
52294;SDS011;38243;53.212;6.574;2022-12-01T03:47:09;19.98;;;14.48;;
52294;SDS011;38243;53.212;6.574;2022-12-01T03:49:38;22.63;;;15.55;;
52294;SDS011;38243;53.212;6.574;2022-12-01T03:55:11;22.77;;;15.43;;
52294;SDS011;38243;53.212;6.574;2022-12-01T03:57:45;19.83;;;15.13;;
52294;SDS011;38243;53.212;6.574;2022-12-01T04:00:18;22.45;;;15.27;;
52294;SDS011;38243;53.212;6.574;2022-12-01T04:02:44;19.50;;;14.70;;
52294;SDS011;38243;53.212;6.574;2022-12-01T04:05:10;21.67;;;15.68;;
52294;SDS011;38243;53.212;6.574;2022-12-01T04:07:37;20.17;;;14.60;;
52294;SDS011;38243;53.212;6.574;2022-12-01T04:10:03;19.60;;;14.45;;
52294;SDS011;38243;53.212;6.574;2022-12-01T04:12:30;21.50;;;15.87;;
52294;SDS011;38243;53.212;6.574;2022-12-01T04:15:00;21.02;;;15.30;;
52294;SDS011;38243;53.212;6.574;2022-12-01T04:17:32;20.65;;;15.05;;
52294;SDS011;38243;53.212;6.574;2022-12-01T04:19:58;21.13;;;14.93;;
52294;SDS011;38243;53.212;6.574;2022-12-01T04:22:24;23.13;;;16.40;;
52294;SDS011;38243;53.212;6.574;2022-12-01T04:24:50;20.88;;;15.43;;
52294;SDS011;38243;53.212;6.574;2022-12-01T04:27:16;20.85;;;15.07;;
52294;SDS011;38243;53.212;6.574;2022-12-01T04:29:42;19.80;;;14.90;;
52294;SDS011;38243;53.212;6.574;2022-12-01T04:32:08;19.48;;;14.63;;
52294;SDS011;38243;53.212;6.574;2022-12-01T04:34:34;20.27;;;15.23;;
52294;SDS011;38243;53.212;6.574;2022-12-01T04:37:00;19.90;;;15.23;;
52294;SDS011;38243;53.212;6.574;2022-12-01T04:39:26;20.13;;;14.70;;
52294;SDS011;38243;53.212;6.574;2022-12-01T04:41:51;20.02;;;14.73;;
52294;SDS011;38243;53.212;6.574;2022-12-01T04:44:17;20.97;;;15.20;;
52294;SDS011;38243;53.212;6.574;2022-12-01T04:46:43;20.15;;;15.38;;
52294;SDS011;38243;53.212;6.574;2022-12-01T04:49:09;21.65;;;15.43;;
52294;SDS011;38243;53.212;6.574;2022-12-01T04:51:34;23.43;;;16.00;;
52294;SDS011;38243;53.212;6.574;2022-12-01T04:54:00;18.48;;;14.73;;
52294;SDS011;38243;53.212;6.574;2022-12-01T04:56:27;22.27;;;16.10;;
52294;SDS011;38243;53.212;6.574;2022-12-01T04:58:53;20.27;;;16.02;;
52294;SDS011;38243;53.212;6.574;2022-12-01T05:01:18;19.20;;;14.80;;
52294;SDS011;38243;53.212;6.574;2022-12-01T05:03:45;20.88;;;15.27;;
52294;SDS011;38243;53.212;6.574;2022-12-01T05:06:16;20.20;;;14.98;;
52294;SDS011;38243;53.212;6.574;2022-12-01T05:08:45;20.47;;;15.13;;
52294;SDS011;38243;53.212;6.574;2022-12-01T05:11:12;21.97;;;14.93;;
52294;SDS011;38243;53.212;6.574;2022-12-01T05:13:39;20.40;;;14.95;;
52294;SDS011;38243;53.212;6.574;2022-12-01T05:16:07;20.85;;;15.15;;
52294;SDS011;38243;53.212;6.574;2022-12-01T05:18:34;22.90;;;16.17;;
52294;SDS011;38243;53.212;6.574;2022-12-01T05:21:00;21.15;;;15.30;;
52294;SDS011;38243;53.212;6.574;2022-12-01T05:23:28;20.63;;;14.90;;
52294;SDS011;38243;53.212;6.574;2022-12-01T05:25:56;22.63;;;15.93;;
52294;SDS011;38243;53.212;6.574;2022-12-01T05:28:23;20.00;;;15.45;;
52294;SDS011;38243;53.212;6.574;2022-12-01T05:30:50;22.13;;;15.32;;
52294;SDS011;38243;53.212;6.574;2022-12-01T05:33:16;21.02;;;15.50;;
52294;SDS011;38243;53.212;6.574;2022-12-01T05:35:42;18.83;;;14.67;;
52294;SDS011;38243;53.212;6.574;2022-12-01T05:38:08;19.58;;;13.65;;
52294;SDS011;38243;53.212;6.574;2022-12-01T05:40:34;19.58;;;14.93;;
52294;SDS011;38243;53.212;6.574;2022-12-01T05:43:00;20.70;;;15.20;;
52294;SDS011;38243;53.212;6.574;2022-12-01T05:45:26;19.40;;;14.43;;
52294;SDS011;38243;53.212;6.574;2022-12-01T05:47:55;20.35;;;14.68;;
52294;SDS011;38243;53.212;6.574;2022-12-01T05:50:23;19.08;;;14.13;;
52294;SDS011;38243;53.212;6.574;2022-12-01T05:52:49;19.60;;;15.05;;
52294;SDS011;38243;53.212;6.574;2022-12-01T05:55:15;19.47;;;14.87;;
52294;SDS011;38243;53.212;6.574;2022-12-01T05:57:41;20.30;;;14.83;;
52294;SDS011;38243;53.212;6.574;2022-12-01T06:00:07;20.85;;;15.13;;
52294;SDS011;38243;53.212;6.574;2022-12-01T06:02:33;20.45;;;15.20;;
52294;SDS011;38243;53.212;6.574;2022-12-01T06:04:59;20.80;;;14.93;;
52294;SDS011;38243;53.212;6.574;2022-12-01T06:07:25;19.73;;;14.23;;
52294;SDS011;38243;53.212;6.574;2022-12-01T06:09:51;20.53;;;15.23;;
52294;SDS011;38243;53.212;6.574;2022-12-01T06:12:17;18.98;;;14.70;;
52294;SDS011;38243;53.212;6.574;2022-12-01T06:14:43;20.47;;;14.70;;
52294;SDS011;38243;53.212;6.574;2022-12-01T06:17:09;18.70;;;14.17;;
52294;SDS011;38243;53.212;6.574;2022-12-01T06:19:35;20.47;;;15.10;;
52294;SDS011;38243;53.212;6.574;2022-12-01T06:22:01;17.80;;;14.32;;
52294;SDS011;38243;53.212;6.574;2022-12-01T06:24:26;22.90;;;14.98;;
52294;SDS011;38243;53.212;6.574;2022-12-01T06:26:54;17.55;;;14.07;;
52294;SDS011;38243;53.212;6.574;2022-12-01T06:29:20;16.95;;;13.30;;
52294;SDS011;38243;53.212;6.574;2022-12-01T06:31:45;18.90;;;14.43;;
52294;SDS011;38243;53.212;6.574;2022-12-01T06:34:11;19.27;;;14.57;;
52294;SDS011;38243;53.212;6.574;2022-12-01T06:36:37;19.67;;;14.80;;
52294;SDS011;38243;53.212;6.574;2022-12-01T06:39:06;17.90;;;13.85;;
52294;SDS011;38243;53.212;6.574;2022-12-01T06:41:36;18.05;;;13.80;;
52294;SDS011;38243;53.212;6.574;2022-12-01T06:44:02;18.73;;;13.98;;
52294;SDS011;38243;53.212;6.574;2022-12-01T06:46:28;18.30;;;13.97;;
52294;SDS011;38243;53.212;6.574;2022-12-01T06:48:53;16.52;;;12.93;;
52294;SDS011;38243;53.212;6.574;2022-12-01T06:51:19;19.23;;;14.07;;
52294;SDS011;38243;53.212;6.574;2022-12-01T06:53:45;17.88;;;13.65;;
52294;SDS011;38243;53.212;6.574;2022-12-01T06:56:11;16.75;;;13.02;;
52294;SDS011;38243;53.212;6.574;2022-12-01T06:58:36;18.33;;;14.13;;
52294;SDS011;38243;53.212;6.574;2022-12-01T07:01:09;18.40;;;13.50;;
52294;SDS011;38243;53.212;6.574;2022-12-01T07:03:35;20.50;;;14.30;;
52294;SDS011;38243;53.212;6.574;2022-12-01T07:06:01;17.85;;;13.52;;
52294;SDS011;38243;53.212;6.574;2022-12-01T07:08:28;19.33;;;13.55;;
52294;SDS011;38243;53.212;6.574;2022-12-01T07:11:05;19.85;;;13.40;;
52294;SDS011;38243;53.212;6.574;2022-12-01T07:13:32;17.13;;;12.67;;
52294;SDS011;38243;53.212;6.574;2022-12-01T07:15:59;19.33;;;13.32;;
52294;SDS011;38243;53.212;6.574;2022-12-01T07:18:25;17.63;;;12.40;;
52294;SDS011;38243;53.212;6.574;2022-12-01T07:20:51;18.70;;;13.37;;
52294;SDS011;38243;53.212;6.574;2022-12-01T07:23:17;16.90;;;13.40;;
52294;SDS011;38243;53.212;6.574;2022-12-01T07:25:42;18.05;;;13.52;;
52294;SDS011;38243;53.212;6.574;2022-12-01T07:28:08;17.27;;;12.50;;
52294;SDS011;38243;53.212;6.574;2022-12-01T07:30:34;21.95;;;13.40;;
52294;SDS011;38243;53.212;6.574;2022-12-01T07:33:00;17.10;;;12.77;;
52294;SDS011;38243;53.212;6.574;2022-12-01T07:35:26;18.47;;;12.87;;
52294;SDS011;38243;53.212;6.574;2022-12-01T07:37:55;18.60;;;12.20;;
52294;SDS011;38243;53.212;6.574;2022-12-01T07:40:21;17.77;;;12.20;;
52294;SDS011;38243;53.212;6.574;2022-12-01T07:42:47;17.15;;;12.77;;
52294;SDS011;38243;53.212;6.574;2022-12-01T07:45:12;16.40;;;12.20;;
52294;SDS011;38243;53.212;6.574;2022-12-01T07:47:38;16.03;;;11.67;;
52294;SDS011;38243;53.212;6.574;2022-12-01T07:50:04;14.73;;;11.53;;
52294;SDS011;38243;53.212;6.574;2022-12-01T07:52:30;16.73;;;12.57;;
52294;SDS011;38243;53.212;6.574;2022-12-01T07:54:56;17.13;;;11.47;;
52294;SDS011;38243;53.212;6.574;2022-12-01T07:57:22;18.17;;;11.15;;
52294;SDS011;38243;53.212;6.574;2022-12-01T07:59:48;16.10;;;11.23;;
52294;SDS011;38243;53.212;6.574;2022-12-01T08:02:14;16.50;;;11.30;;
52294;SDS011;38243;53.212;6.574;2022-12-01T08:04:39;18.50;;;11.20;;
52294;SDS011;38243;53.212;6.574;2022-12-01T08:07:06;17.50;;;11.55;;
52294;SDS011;38243;53.212;6.574;2022-12-01T08:09:32;16.87;;;11.80;;
52294;SDS011;38243;53.212;6.574;2022-12-01T08:11:57;18.48;;;11.40;;
52294;SDS011;38243;53.212;6.574;2022-12-01T08:14:23;17.27;;;11.53;;
52294;SDS011;38243;53.212;6.574;2022-12-01T08:16:49;16.55;;;11.07;;
52294;SDS011;38243;53.212;6.574;2022-12-01T08:19:14;17.63;;;11.00;;
52294;SDS011;38243;53.212;6.574;2022-12-01T08:21:40;13.87;;;10.60;;
52294;SDS011;38243;53.212;6.574;2022-12-01T08:24:06;16.08;;;10.40;;
52294;SDS011;38243;53.212;6.574;2022-12-01T08:26:32;14.82;;;10.30;;
52294;SDS011;38243;53.212;6.574;2022-12-01T08:28:58;14.43;;;10.30;;
52294;SDS011;38243;53.212;6.574;2022-12-01T08:31:24;15.15;;;9.98;;
52294;SDS011;38243;53.212;6.574;2022-12-01T08:33:52;12.07;;;9.50;;
52294;SDS011;38243;53.212;6.574;2022-12-01T08:36:19;14.60;;;9.60;;
52294;SDS011;38243;53.212;6.574;2022-12-01T08:38:46;13.18;;;9.73;;
52294;SDS011;38243;53.212;6.574;2022-12-01T08:41:13;12.02;;;9.25;;
52294;SDS011;38243;53.212;6.574;2022-12-01T08:43:40;13.57;;;9.30;;
52294;SDS011;38243;53.212;6.574;2022-12-01T08:46:08;12.75;;;9.50;;
52294;SDS011;38243;53.212;6.574;2022-12-01T08:48:35;12.23;;;9.07;;
52294;SDS011;38243;53.212;6.574;2022-12-01T08:51:09;12.98;;;8.93;;
52294;SDS011;38243;53.212;6.574;2022-12-01T08:53:37;12.20;;;9.50;;
52294;SDS011;38243;53.212;6.574;2022-12-01T08:56:06;13.05;;;9.02;;
52294;SDS011;38243;53.212;6.574;2022-12-01T08:58:35;11.20;;;8.82;;
52294;SDS011;38243;53.212;6.574;2022-12-01T09:01:02;11.40;;;7.93;;
52294;SDS011;38243;53.212;6.574;2022-12-01T09:03:29;11.40;;;8.43;;
52294;SDS011;38243;53.212;6.574;2022-12-01T09:06:06;11.57;;;7.80;;
52294;SDS011;38243;53.212;6.574;2022-12-01T09:08:34;11.90;;;7.63;;
52294;SDS011;38243;53.212;6.574;2022-12-01T09:11:08;12.85;;;8.25;;
52294;SDS011;38243;53.212;6.574;2022-12-01T09:13:36;14.23;;;8.18;;
52294;SDS011;38243;53.212;6.574;2022-12-01T09:16:04;11.75;;;7.72;;
52294;SDS011;38243;53.212;6.574;2022-12-01T09:18:41;14.40;;;7.72;;
52294;SDS011;38243;53.212;6.574;2022-12-01T09:21:09;19.02;;;8.30;;
52294;SDS011;38243;53.212;6.574;2022-12-01T09:23:39;15.55;;;7.35;;
52294;SDS011;38243;53.212;6.574;2022-12-01T09:26:05;13.48;;;7.68;;
52294;SDS011;38243;53.212;6.574;2022-12-01T09:28:31;12.43;;;7.30;;
52294;SDS011;38243;53.212;6.574;2022-12-01T09:31:04;13.80;;;7.20;;
52294;SDS011;38243;53.212;6.574;2022-12-01T09:33:35;14.90;;;7.75;;
52294;SDS011;38243;53.212;6.574;2022-12-01T09:36:02;11.90;;;7.78;;
52294;SDS011;38243;53.212;6.574;2022-12-01T09:38:30;13.00;;;8.38;;
52294;SDS011;38243;53.212;6.574;2022-12-01T09:41:16;12.40;;;7.77;;
52294;SDS011;38243;53.212;6.574;2022-12-01T09:44:02;17.55;;;9.93;;
52294;SDS011;38243;53.212;6.574;2022-12-01T09:46:42;23.38;;;9.88;;
52294;SDS011;38243;53.212;6.574;2022-12-01T09:49:41;17.52;;;10.30;;
52294;SDS011;38243;53.212;6.574;2022-12-01T09:52:12;17.55;;;11.35;;
52294;SDS011;38243;53.212;6.574;2022-12-01T09:54:40;17.10;;;11.27;;
52294;SDS011;38243;53.212;6.574;2022-12-01T09:57:10;15.70;;;11.20;;
52294;SDS011;38243;53.212;6.574;2022-12-01T09:59:48;15.85;;;10.80;;
52294;SDS011;38243;53.212;6.574;2022-12-01T10:02:23;17.30;;;11.63;;
52294;SDS011;38243;53.212;6.574;2022-12-01T10:05:01;23.17;;;12.80;;
52294;SDS011;38243;53.212;6.574;2022-12-01T10:07:35;17.98;;;11.77;;
52294;SDS011;38243;53.212;6.574;2022-12-01T10:10:11;19.08;;;11.85;;
52294;SDS011;38243;53.212;6.574;2022-12-01T10:12:42;16.77;;;12.07;;
52294;SDS011;38243;53.212;6.574;2022-12-01T10:15:34;17.85;;;13.07;;
52294;SDS011;38243;53.212;6.574;2022-12-01T10:31:56;19.33;;;13.70;;
52294;SDS011;38243;53.212;6.574;2022-12-01T10:34:34;18.77;;;12.35;;
52294;SDS011;38243;53.212;6.574;2022-12-01T10:37:02;19.63;;;13.77;;
52294;SDS011;38243;53.212;6.574;2022-12-01T10:39:30;102.65;;;25.67;;
52294;SDS011;38243;53.212;6.574;2022-12-01T10:42:24;170.75;;;32.30;;
52294;SDS011;38243;53.212;6.574;2022-12-01T10:45:03;189.90;;;37.40;;
52294;SDS011;38243;53.212;6.574;2022-12-01T10:47:31;174.40;;;36.05;;
52294;SDS011;38243;53.212;6.574;2022-12-01T10:49:57;188.97;;;38.70;;
52294;SDS011;38243;53.212;6.574;2022-12-01T10:52:29;178.00;;;37.80;;
52294;SDS011;38243;53.212;6.574;2022-12-01T10:55:00;196.55;;;39.42;;
52294;SDS011;38243;53.212;6.574;2022-12-01T10:57:29;194.00;;;40.40;;
52294;SDS011;38243;53.212;6.574;2022-12-01T11:00:04;194.48;;;40.08;;
52294;SDS011;38243;53.212;6.574;2022-12-01T11:02:30;185.38;;;39.08;;
52294;SDS011;38243;53.212;6.574;2022-12-01T11:07:33;159.80;;;37.90;;
52294;SDS011;38243;53.212;6.574;2022-12-01T11:10:17;161.33;;;37.60;;
52294;SDS011;38243;53.212;6.574;2022-12-01T11:12:44;154.07;;;39.73;;
52294;SDS011;38243;53.212;6.574;2022-12-01T11:15:18;165.18;;;41.20;;
52294;SDS011;38243;53.212;6.574;2022-12-01T11:17:46;146.38;;;38.03;;
52294;SDS011;38243;53.212;6.574;2022-12-01T11:23:44;122.40;;;35.40;;
52294;SDS011;38243;53.212;6.574;2022-12-01T11:31:22;153.50;;;37.30;;
52294;SDS011;38243;53.212;6.574;2022-12-01T11:34:00;154.35;;;37.92;;
52294;SDS011;38243;53.212;6.574;2022-12-01T11:36:36;163.35;;;38.55;;
52294;SDS011;38243;53.212;6.574;2022-12-01T11:39:16;144.30;;;37.20;;
52294;SDS011;38243;53.212;6.574;2022-12-01T11:42:04;129.65;;;36.47;;
52294;SDS011;38243;53.212;6.574;2022-12-01T11:44:36;140.02;;;35.97;;
52294;SDS011;38243;53.212;6.574;2022-12-01T11:47:10;118.53;;;33.15;;
52294;SDS011;38243;53.212;6.574;2022-12-01T11:49:46;114.97;;;34.75;;
52294;SDS011;38243;53.212;6.574;2022-12-01T11:52:23;131.82;;;34.72;;
52294;SDS011;38243;53.212;6.574;2022-12-01T11:54:59;120.75;;;34.67;;
52294;SDS011;38243;53.212;6.574;2022-12-01T11:57:39;112.72;;;32.30;;
52294;SDS011;38243;53.212;6.574;2022-12-01T12:00:11;114.97;;;32.15;;
52294;SDS011;38243;53.212;6.574;2022-12-01T12:02:48;113.32;;;32.05;;
52294;SDS011;38243;53.212;6.574;2022-12-01T12:05:32;109.43;;;31.95;;
52294;SDS011;38243;53.212;6.574;2022-12-01T12:11:14;93.07;;;30.13;;
52294;SDS011;38243;53.212;6.574;2022-12-01T12:21:32;94.20;;;28.93;;
52294;SDS011;38243;53.212;6.574;2022-12-01T12:27:09;87.75;;;27.85;;
52294;SDS011;38243;53.212;6.574;2022-12-01T12:30:27;77.43;;;27.98;;
52294;SDS011;38243;53.212;6.574;2022-12-01T12:38:28;74.90;;;25.93;;
52294;SDS011;38243;53.212;6.574;2022-12-01T12:41:16;89.13;;;27.80;;
52294;SDS011;38243;53.212;6.574;2022-12-01T12:49:30;64.37;;;25.30;;
52294;SDS011;38243;53.212;6.574;2022-12-01T12:52:03;60.77;;;24.80;;
52294;SDS011;38243;53.212;6.574;2022-12-01T12:57:26;61.97;;;24.23;;
52294;SDS011;38243;53.212;6.574;2022-12-01T13:00:04;57.10;;;23.35;;
52294;SDS011;38243;53.212;6.574;2022-12-01T13:05:15;53.60;;;22.42;;
52294;SDS011;38243;53.212;6.574;2022-12-01T13:07:56;52.63;;;21.98;;
52294;SDS011;38243;53.212;6.574;2022-12-01T13:13:23;46.97;;;20.92;;
52294;SDS011;38243;53.212;6.574;2022-12-01T13:16:04;48.83;;;21.37;;
52294;SDS011;38243;53.212;6.574;2022-12-01T13:21:08;46.78;;;20.67;;
52294;SDS011;38243;53.212;6.574;2022-12-01T13:23:40;43.80;;;20.77;;
52294;SDS011;38243;53.212;6.574;2022-12-01T13:26:07;41.17;;;20.90;;
52294;SDS011;38243;53.212;6.574;2022-12-01T13:28:35;41.80;;;19.73;;
52294;SDS011;38243;53.212;6.574;2022-12-01T13:31:11;41.35;;;19.83;;
52294;SDS011;38243;53.212;6.574;2022-12-01T13:33:42;41.87;;;20.50;;
52294;SDS011;38243;53.212;6.574;2022-12-01T13:36:37;43.15;;;19.60;;
52294;SDS011;38243;53.212;6.574;2022-12-01T13:39:16;40.60;;;19.08;;
52294;SDS011;38243;53.212;6.574;2022-12-01T13:41:45;37.58;;;18.67;;
52294;SDS011;38243;53.212;6.574;2022-12-01T13:44:25;34.70;;;19.55;;
52294;SDS011;38243;53.212;6.574;2022-12-01T13:47:00;33.38;;;18.80;;
52294;SDS011;38243;53.212;6.574;2022-12-01T13:49:30;32.38;;;17.85;;
52294;SDS011;38243;53.212;6.574;2022-12-01T13:57:46;30.38;;;17.90;;
52294;SDS011;38243;53.212;6.574;2022-12-01T14:00:33;29.02;;;17.35;;
52294;SDS011;38243;53.212;6.574;2022-12-01T14:08:21;28.15;;;17.60;;
52294;SDS011;38243;53.212;6.574;2022-12-01T14:10:56;29.60;;;17.73;;
52294;SDS011;38243;53.212;6.574;2022-12-01T14:13:29;28.77;;;17.50;;
52294;SDS011;38243;53.212;6.574;2022-12-01T14:15:57;28.08;;;17.23;;
52294;SDS011;38243;53.212;6.574;2022-12-01T14:18:35;27.00;;;17.00;;
52294;SDS011;38243;53.212;6.574;2022-12-01T14:21:08;25.80;;;16.33;;
52294;SDS011;38243;53.212;6.574;2022-12-01T14:24:19;26.42;;;16.98;;
52294;SDS011;38243;53.212;6.574;2022-12-01T14:26:28;25.63;;;16.63;;
52294;SDS011;38243;53.212;6.574;2022-12-01T14:34:00;25.20;;;16.90;;
52294;SDS011;38243;53.212;6.574;2022-12-01T14:39:09;25.23;;;16.05;;
52294;SDS011;38243;53.212;6.574;2022-12-01T14:41:57;24.67;;;16.95;;
52294;SDS011;38243;53.212;6.574;2022-12-01T14:49:39;27.30;;;16.10;;
52294;SDS011;38243;53.212;6.574;2022-12-01T14:52:35;27.30;;;15.45;;
52294;SDS011;38243;53.212;6.574;2022-12-01T14:55:05;28.52;;;15.15;;
52294;SDS011;38243;53.212;6.574;2022-12-01T14:57:39;26.05;;;15.55;;
52294;SDS011;38243;53.212;6.574;2022-12-01T15:00:21;23.70;;;15.10;;
52294;SDS011;38243;53.212;6.574;2022-12-01T15:03:00;23.70;;;15.02;;
52294;SDS011;38243;53.212;6.574;2022-12-01T15:05:30;25.27;;;16.08;;
52294;SDS011;38243;53.212;6.574;2022-12-01T15:08:12;90.38;;;26.65;;
52294;SDS011;38243;53.212;6.574;2022-12-01T15:10:54;231.73;;;47.28;;
52294;SDS011;38243;53.212;6.574;2022-12-01T15:13:26;210.90;;;44.22;;
52294;SDS011;38243;53.212;6.574;2022-12-01T15:15:59;236.50;;;47.78;;
52294;SDS011;38243;53.212;6.574;2022-12-01T15:18:29;202.93;;;44.42;;
52294;SDS011;38243;53.212;6.574;2022-12-01T15:21:04;199.95;;;42.92;;
52294;SDS011;38243;53.212;6.574;2022-12-01T15:23:33;179.30;;;40.30;;
52294;SDS011;38243;53.212;6.574;2022-12-01T15:25:59;171.65;;;39.97;;
52294;SDS011;38243;53.212;6.574;2022-12-01T15:28:30;166.73;;;38.73;;
52294;SDS011;38243;53.212;6.574;2022-12-01T15:30:58;166.05;;;40.10;;
52294;SDS011;38243;53.212;6.574;2022-12-01T15:33:32;137.05;;;37.35;;
52294;SDS011;38243;53.212;6.574;2022-12-01T15:35:59;134.27;;;36.65;;
52294;SDS011;38243;53.212;6.574;2022-12-01T15:38:34;133.68;;;35.72;;
52294;SDS011;38243;53.212;6.574;2022-12-01T15:41:01;123.53;;;36.05;;
52294;SDS011;38243;53.212;6.574;2022-12-01T15:43:32;115.27;;;34.63;;
52294;SDS011;38243;53.212;6.574;2022-12-01T15:46:15;120.75;;;36.10;;
52294;SDS011;38243;53.212;6.574;2022-12-01T15:48:42;106.32;;;35.30;;
52294;SDS011;38243;53.212;6.574;2022-12-01T15:53:44;108.90;;;33.57;;
52294;SDS011;38243;53.212;6.574;2022-12-01T15:56:15;98.55;;;32.72;;
52294;SDS011;38243;53.212;6.574;2022-12-01T15:58:48;100.10;;;32.78;;
52294;SDS011;38243;53.212;6.574;2022-12-01T16:01:15;97.22;;;32.90;;
52294;SDS011;38243;53.212;6.574;2022-12-01T16:03:50;81.50;;;32.20;;
52294;SDS011;38243;53.212;6.574;2022-12-01T16:06:17;86.40;;;32.00;;
52294;SDS011;38243;53.212;6.574;2022-12-01T16:08:52;91.15;;;30.65;;
52294;SDS011;38243;53.212;6.574;2022-12-01T16:11:20;89.35;;;30.73;;
52294;SDS011;38243;53.212;6.574;2022-12-01T16:13:59;79.38;;;30.15;;
52294;SDS011;38243;53.212;6.574;2022-12-01T16:21:50;72.07;;;29.38;;
52294;SDS011;38243;53.212;6.574;2022-12-01T16:25:14;75.43;;;30.27;;
52294;SDS011;38243;53.212;6.574;2022-12-01T16:29:49;69.93;;;29.33;;
52294;SDS011;38243;53.212;6.574;2022-12-01T16:34:46;67.22;;;28.08;;
52294;SDS011;38243;53.212;6.574;2022-12-01T16:37:12;73.95;;;27.83;;
52294;SDS011;38243;53.212;6.574;2022-12-01T16:39:39;65.97;;;26.97;;
52294;SDS011;38243;53.212;6.574;2022-12-01T16:42:04;60.75;;;26.40;;
52294;SDS011;38243;53.212;6.574;2022-12-01T16:44:30;60.05;;;26.80;;
52294;SDS011;38243;53.212;6.574;2022-12-01T16:46:56;61.92;;;28.23;;
52294;SDS011;38243;53.212;6.574;2022-12-01T16:49:22;55.73;;;26.53;;
52294;SDS011;38243;53.212;6.574;2022-12-01T16:51:48;58.42;;;27.48;;
52294;SDS011;38243;53.212;6.574;2022-12-01T16:54:13;51.75;;;26.80;;
52294;SDS011;38243;53.212;6.574;2022-12-01T16:56:39;51.23;;;25.07;;
52294;SDS011;38243;53.212;6.574;2022-12-01T16:59:05;54.63;;;26.40;;